Time;durP1;ratioP1;P1;durP2;ratioP2;P2;SDS_P1;SDS_P2;PMS_P1;PMS_P2;Temp;Humidity;BMP_temperature;BMP_pressure;BME280_temperature;BME280_humidity;BME280_pressure;Samples;Min_cycle;Max_cycle;Signal;HPM_P1;HPM_P2
2023/07/30 00:01:51;;;;;;;0.43;0.43;;;;;;;;;;5075073;28;20414;-86
2023/07/30 00:04:16;;;;;;;1.77;0.50;;;;;;;;;;5072463;28;20025;-87
2023/07/30 00:06:41;;;;;;;1.65;0.90;;;;;;;;;;5075156;28;20417;-86
2023/07/30 00:09:10;;;;;;;1.52;0.80;;;;;;;;;;5075822;28;20086;-89
2023/07/30 00:11:35;;;;;;;0.43;0.38;;;;;;;;;;5077486;28;20056;-86
2023/07/30 00:14:01;;;;;;;0.25;0.17;;;;;;;;;;5077497;28;20500;-86
2023/07/30 00:16:27;;;;;;;0.43;0.38;;;;;;;;;;5077976;28;20076;-87
2023/07/30 00:18:52;;;;;;;1.02;0.75;;;;;;;;;;5078001;28;20028;-89
2023/07/30 00:21:18;;;;;;;0.77;0.57;;;;;;;;;;5077729;28;20020;-87
2023/07/30 00:23:43;;;;;;;0.60;0.40;;;;;;;;;;5077473;28;20086;-87
2023/07/30 00:26:08;;;;;;;0.73;0.35;;;;;;;;;;5077750;28;20059;-87
2023/07/30 00:28:37;;;;;;;0.43;0.43;;;;;;;;;;5079684;28;20032;-86
2023/07/30 00:31:02;;;;;;;0.93;0.63;;;;;;;;;;5077375;28;20191;-87
2023/07/30 00:33:28;;;;;;;1.38;0.80;;;;;;;;;;5074392;28;20055;-85
2023/07/30 00:35:53;;;;;;;1.80;0.57;;;;;;;;;;5079384;28;20028;-87
2023/07/30 00:38:19;;;;;;;1.27;0.85;;;;;;;;;;5074910;28;20035;-86
2023/07/30 00:40:45;;;;;;;0.80;0.70;;;;;;;;;;5074594;28;20077;-87
2023/07/30 00:43:10;;;;;;;0.50;0.47;;;;;;;;;;5074036;28;20594;-89
2023/07/30 00:45:38;;;;;;;0.52;0.52;;;;;;;;;;5075736;28;20490;-86
2023/07/30 00:48:04;;;;;;;0.75;0.73;;;;;;;;;;5076080;28;20534;-85
2023/07/30 00:50:30;;;;;;;0.85;0.47;;;;;;;;;;5074238;28;20024;-84
2023/07/30 00:52:56;;;;;;;1.48;0.70;;;;;;;;;;5077027;28;20028;-84
2023/07/30 00:55:22;;;;;;;0.98;0.68;;;;;;;;;;5074841;28;20033;-86
2023/07/30 00:57:48;;;;;;;2.08;0.85;;;;;;;;;;5074603;28;20028;-86
2023/07/30 01:00:14;;;;;;;2.17;0.77;;;;;;;;;;5073763;28;20032;-85
2023/07/30 01:02:39;;;;;;;0.85;0.63;;;;;;;;;;5074742;28;20032;-85
2023/07/30 01:05:05;;;;;;;1.00;0.35;;;;;;;;;;5073086;28;20380;-84
2023/07/30 01:07:31;;;;;;;0.63;0.57;;;;;;;;;;5072575;28;20078;-85
2023/07/30 01:09:57;;;;;;;0.40;0.40;;;;;;;;;;5076035;28;20017;-85
2023/07/30 01:12:23;;;;;;;0.77;0.77;;;;;;;;;;5074102;28;20369;-85
2023/07/30 01:14:50;;;;;;;1.27;0.82;;;;;;;;;;5074259;28;20024;-86
2023/07/30 01:17:16;;;;;;;0.70;0.45;;;;;;;;;;5074778;28;20499;-84
2023/07/30 01:19:41;;;;;;;0.60;0.60;;;;;;;;;;5074999;28;20487;-85
2023/07/30 01:22:07;;;;;;;0.50;0.50;;;;;;;;;;5073342;28;20020;-85
2023/07/30 01:24:32;;;;;;;0.98;0.88;;;;;;;;;;5075165;28;20032;-86
2023/07/30 01:27:07;;;;;;;1.25;0.70;;;;;;;;;;5075978;28;20020;-86
2023/07/30 01:29:48;;;;;;;1.02;0.95;;;;;;;;;;5073477;28;20384;-85
2023/07/30 01:32:14;;;;;;;1.25;0.80;;;;;;;;;;5073731;28;20024;-84
2023/07/30 01:34:41;;;;;;;1.33;1.17;;;;;;;;;;5072695;28;20020;-86
2023/07/30 01:37:10;;;;;;;1.65;1.00;;;;;;;;;;5073249;28;20387;-86
2023/07/30 01:39:38;;;;;;;0.20;0.20;;;;;;;;;;5074280;28;20064;-84
2023/07/30 01:42:04;;;;;;;1.30;0.95;;;;;;;;;;5073448;28;20097;-87
2023/07/30 01:44:29;;;;;;;1.67;0.88;;;;;;;;;;5073776;28;20476;-84
2023/07/30 01:46:55;;;;;;;0.32;0.32;;;;;;;;;;5071895;28;20024;-87
2023/07/30 01:49:20;;;;;;;2.00;0.80;;;;;;;;;;5073486;28;20032;-85
2023/07/30 01:51:46;;;;;;;0.73;0.60;;;;;;;;;;5073210;28;20073;-85
2023/07/30 01:54:11;;;;;;;0.63;0.30;;;;;;;;;;5072535;28;20480;-83
2023/07/30 01:56:37;;;;;;;1.95;1.25;;;;;;;;;;5073304;28;20017;-84
2023/07/30 01:59:02;;;;;;;0.35;0.35;;;;;;;;;;5071537;28;20403;-85
2023/07/30 02:01:27;;;;;;;0.55;0.50;;;;;;;;;;5073671;28;21776;-87
2023/07/30 02:03:53;;;;;;;2.45;1.10;;;;;;;;;;5073193;28;20027;-86
2023/07/30 02:06:18;;;;;;;0.35;0.30;;;;;;;;;;5074179;28;20038;-86
2023/07/30 02:08:44;;;;;;;1.08;0.98;;;;;;;;;;5072531;28;20020;-85
2023/07/30 02:11:09;;;;;;;0.40;0.38;;;;;;;;;;5073386;28;20074;-85
2023/07/30 02:13:35;;;;;;;1.40;0.88;;;;;;;;;;5074977;28;20024;-88
2023/07/30 02:16:00;;;;;;;1.42;0.70;;;;;;;;;;5072813;28;20072;-87
2023/07/30 02:18:26;;;;;;;0.73;0.57;;;;;;;;;;5072653;28;20016;-86
2023/07/30 02:20:51;;;;;;;2.55;1.30;;;;;;;;;;5073757;28;20091;-88
2023/07/30 02:23:17;;;;;;;1.55;0.85;;;;;;;;;;5072985;28;20190;-84
2023/07/30 02:25:42;;;;;;;0.40;0.40;;;;;;;;;;5071956;28;20506;-85
2023/07/30 02:28:09;;;;;;;0.85;0.57;;;;;;;;;;5074074;28;20380;-85
2023/07/30 02:30:34;;;;;;;0.88;0.52;;;;;;;;;;5074444;28;20020;-88
2023/07/30 02:33:00;;;;;;;1.05;0.52;;;;;;;;;;5073090;28;20031;-85
2023/07/30 02:35:25;;;;;;;2.10;0.73;;;;;;;;;;5075612;28;20025;-85
2023/07/30 02:37:51;;;;;;;1.55;0.90;;;;;;;;;;5073446;28;20485;-85
2023/07/30 02:40:17;;;;;;;1.33;0.60;;;;;;;;;;5072433;28;20112;-86
2023/07/30 02:42:42;;;;;;;0.65;0.52;;;;;;;;;;5075182;28;20054;-86
2023/07/30 02:45:08;;;;;;;0.55;0.45;;;;;;;;;;5072086;28;20036;-85
2023/07/30 02:47:33;;;;;;;0.63;0.47;;;;;;;;;;5073087;28;20024;-85
2023/07/30 02:49:59;;;;;;;1.45;0.73;;;;;;;;;;5072107;28;20021;-86
2023/07/30 02:52:24;;;;;;;0.70;0.68;;;;;;;;;;5073562;28;20050;-85
2023/07/30 02:54:50;;;;;;;1.02;0.95;;;;;;;;;;5074178;28;20473;-84
2023/07/30 02:57:15;;;;;;;1.08;0.82;;;;;;;;;;5073472;28;20098;-85
2023/07/30 02:59:41;;;;;;;1.50;0.77;;;;;;;;;;5072956;28;20089;-87
2023/07/30 03:02:06;;;;;;;1.27;0.63;;;;;;;;;;5073146;28;20107;-87
2023/07/30 03:04:33;;;;;;;1.73;0.63;;;;;;;;;;5073485;28;20059;-85
2023/07/30 03:06:58;;;;;;;4.63;0.90;;;;;;;;;;5071893;28;20025;-86
2023/07/30 03:09:23;;;;;;;1.15;0.75;;;;;;;;;;5071150;28;20372;-84
2023/07/30 03:11:51;;;;;;;1.00;0.85;;;;;;;;;;5072507;28;20024;-87
2023/07/30 03:14:20;;;;;;;2.10;1.30;;;;;;;;;;5071535;28;20036;-84
2023/07/30 03:16:49;;;;;;;0.57;0.57;;;;;;;;;;5073073;28;20044;-84
2023/07/30 03:19:15;;;;;;;1.00;0.68;;;;;;;;;;5072073;28;20029;-86
2023/07/30 03:21:40;;;;;;;1.10;0.98;;;;;;;;;;5070892;28;20117;-85
2023/07/30 03:24:06;;;;;;;0.75;0.52;;;;;;;;;;5074566;28;20036;-87
2023/07/30 03:26:31;;;;;;;0.88;0.55;;;;;;;;;;5073751;28;20097;-86
2023/07/30 03:28:57;;;;;;;0.52;0.50;;;;;;;;;;5071875;28;20031;-86
2023/07/30 03:31:23;;;;;;;0.55;0.50;;;;;;;;;;5069686;28;20020;-86
2023/07/30 03:33:48;;;;;;;0.80;0.50;;;;;;;;;;5074022;28;20423;-84
2023/07/30 03:36:14;;;;;;;0.63;0.63;;;;;;;;;;5073442;28;20035;-84
2023/07/30 03:38:41;;;;;;;7.00;0.65;;;;;;;;;;5072918;28;20021;-86
2023/07/30 03:41:06;;;;;;;2.17;0.85;;;;;;;;;;5071736;28;20021;-84
2023/07/30 03:43:35;;;;;;;0.47;0.47;;;;;;;;;;5071270;28;20020;-85
2023/07/30 03:46:00;;;;;;;0.90;0.68;;;;;;;;;;5072697;28;20468;-85
2023/07/30 03:48:26;;;;;;;1.60;0.85;;;;;;;;;;5073861;28;20035;-84
2023/07/30 03:50:55;;;;;;;0.80;0.70;;;;;;;;;;5072055;28;20050;-86
2023/07/30 03:53:21;;;;;;;1.15;0.93;;;;;;;;;;5072579;28;20178;-84
2023/07/30 03:55:47;;;;;;;1.33;1.02;;;;;;;;;;5073794;28;20124;-87
2023/07/30 03:58:13;;;;;;;0.50;0.50;;;;;;;;;;5070336;28;20056;-82
2023/07/30 04:00:39;;;;;;;0.82;0.70;;;;;;;;;;5075189;28;20492;-84
2023/07/30 04:03:05;;;;;;;0.57;0.50;;;;;;;;;;5067907;28;20107;-85
2023/07/30 04:05:30;;;;;;;0.98;0.80;;;;;;;;;;5072771;28;20111;-84
2023/07/30 04:07:56;;;;;;;0.43;0.43;;;;;;;;;;5074610;28;20039;-85
2023/07/30 04:10:22;;;;;;;1.38;1.00;;;;;;;;;;5070888;28;20025;-82
2023/07/30 04:12:47;;;;;;;1.08;0.82;;;;;;;;;;5070427;28;20464;-85
2023/07/30 04:15:13;;;;;;;0.88;0.60;;;;;;;;;;5069818;28;20036;-84
2023/07/30 04:17:38;;;;;;;0.65;0.60;;;;;;;;;;5072376;28;20455;-83
2023/07/30 04:20:04;;;;;;;0.80;0.50;;;;;;;;;;5070213;28;20488;-83
2023/07/30 04:22:31;;;;;;;0.60;0.60;;;;;;;;;;5069897;28;20056;-88
2023/07/30 04:24:56;;;;;;;1.80;0.82;;;;;;;;;;5069957;28;21061;-85
2023/07/30 04:27:22;;;;;;;1.67;1.00;;;;;;;;;;5075229;28;20055;-88
2023/07/30 04:29:47;;;;;;;1.55;0.73;;;;;;;;;;5073384;28;20024;-86
2023/07/30 04:32:13;;;;;;;0.77;0.70;;;;;;;;;;5075855;28;20040;-86
2023/07/30 04:34:39;;;;;;;0.38;0.38;;;;;;;;;;5075210;28;20380;-86
2023/07/30 04:37:06;;;;;;;1.20;0.75;;;;;;;;;;5074272;28;20043;-86
2023/07/30 04:39:32;;;;;;;0.70;0.55;;;;;;;;;;5072874;28;20025;-87
2023/07/30 04:41:58;;;;;;;0.80;0.50;;;;;;;;;;5074288;28;20031;-86
2023/07/30 04:44:24;;;;;;;0.85;0.68;;;;;;;;;;5071710;28;20477;-87
2023/07/30 04:46:49;;;;;;;0.95;0.73;;;;;;;;;;5072638;28;20043;-88
2023/07/30 04:49:15;;;;;;;1.10;0.85;;;;;;;;;;5071978;28;20028;-87
2023/07/30 04:51:41;;;;;;;3.10;1.38;;;;;;;;;;5073104;28;20111;-88
2023/07/30 04:54:06;;;;;;;1.42;1.17;;;;;;;;;;5076171;28;20465;-86
2023/07/30 04:56:32;;;;;;;1.00;0.90;;;;;;;;;;5077347;28;20032;-86
2023/07/30 04:58:57;;;;;;;0.75;0.73;;;;;;;;;;5073462;28;20017;-86
2023/07/30 05:01:24;;;;;;;1.10;1.00;;;;;;;;;;5076990;28;20028;-86
2023/07/30 05:03:50;;;;;;;2.58;1.42;;;;;;;;;;5074149;28;20028;-85
2023/07/30 05:06:15;;;;;;;0.85;0.77;;;;;;;;;;5073183;28;20368;-84
2023/07/30 05:08:41;;;;;;;1.52;1.00;;;;;;;;;;5073304;28;20472;-85
2023/07/30 05:11:06;;;;;;;1.80;0.90;;;;;;;;;;5072402;28;20178;-86
2023/07/30 05:13:32;;;;;;;1.17;1.08;;;;;;;;;;5073652;28;20027;-88
2023/07/30 05:15:57;;;;;;;1.25;0.80;;;;;;;;;;5073217;28;20049;-87
2023/07/30 05:18:23;;;;;;;0.40;0.40;;;;;;;;;;5072963;28;20098;-87
2023/07/30 05:20:48;;;;;;;1.55;1.13;;;;;;;;;;5073385;28;20042;-86
2023/07/30 05:23:14;;;;;;;0.88;0.82;;;;;;;;;;5072109;28;20060;-86
2023/07/30 05:25:40;;;;;;;0.95;0.80;;;;;;;;;;5073443;28;20369;-86
2023/07/30 05:28:05;;;;;;;1.05;0.75;;;;;;;;;;5072920;28;20034;-86
2023/07/30 05:30:31;;;;;;;1.17;1.08;;;;;;;;;;5072170;28;20024;-84
2023/07/30 05:32:56;;;;;;;0.55;0.52;;;;;;;;;;5075499;28;20029;-86
2023/07/30 05:35:22;;;;;;;0.32;0.32;;;;;;;;;;5074553;28;20020;-84
2023/07/30 05:37:47;;;;;;;1.52;1.02;;;;;;;;;;5073182;28;20025;-82
2023/07/30 05:40:15;;;;;;;0.93;0.90;;;;;;;;;;5072164;28;20040;-83
2023/07/30 05:42:40;;;;;;;1.05;0.85;;;;;;;;;;5072709;28;21958;-85
2023/07/30 05:45:06;;;;;;;1.30;0.85;;;;;;;;;;5071342;28;20024;-83
2023/07/30 05:47:32;;;;;;;1.00;0.90;;;;;;;;;;5072409;28;20111;-85
2023/07/30 05:49:57;;;;;;;0.85;0.68;;;;;;;;;;5072996;28;20432;-83
2023/07/30 05:52:23;;;;;;;1.58;1.08;;;;;;;;;;5073604;28;20503;-82
2023/07/30 05:54:48;;;;;;;1.27;1.15;;;;;;;;;;5073116;28;20032;-83
2023/07/30 05:57:14;;;;;;;0.60;0.52;;;;;;;;;;5072007;28;20032;-82
2023/07/30 05:59:39;;;;;;;0.57;0.57;;;;;;;;;;5072457;28;20468;-84
2023/07/30 06:02:05;;;;;;;0.80;0.60;;;;;;;;;;5071102;28;20371;-84
2023/07/30 06:04:30;;;;;;;0.65;0.65;;;;;;;;;;5072287;28;20028;-83
2023/07/30 06:07:00;;;;;;;2.63;0.98;;;;;;;;;;5071260;28;20035;-83
2023/07/30 06:09:26;;;;;;;;;;;;;;;;;;5071921;28;21509;-86
2023/07/30 06:11:51;;;;;;;1.15;1.05;;;;;;;;;;5071377;28;19912;-85
2023/07/30 06:14:16;;;;;;;0.80;0.70;;;;;;;;;;5072843;28;20028;-85
2023/07/30 06:16:43;;;;;;;1.77;1.10;;;;;;;;;;5071239;28;20048;-84
2023/07/30 06:19:09;;;;;;;1.52;1.13;;;;;;;;;;5072179;28;20052;-83
2023/07/30 06:21:36;;;;;;;0.82;0.80;;;;;;;;;;5071540;28;20036;-85
2023/07/30 06:24:01;;;;;;;0.98;0.68;;;;;;;;;;5071368;28;20024;-85
2023/07/30 06:26:27;;;;;;;1.35;0.68;;;;;;;;;;5070165;28;20030;-84
2023/07/30 06:28:52;;;;;;;0.75;0.68;;;;;;;;;;5072328;28;20103;-86
2023/07/30 06:31:18;;;;;;;0.93;0.80;;;;;;;;;;5072116;28;20103;-84
2023/07/30 06:33:43;;;;;;;0.77;0.70;;;;;;;;;;5067357;28;20407;-84
2023/07/30 06:36:08;;;;;;;2.10;1.17;;;;;;;;;;5071931;28;20087;-86
2023/07/30 06:38:34;;;;;;;1.38;1.00;;;;;;;;;;5071090;28;20062;-87
2023/07/30 06:40:59;;;;;;;1.48;1.13;;;;;;;;;;5068547;28;20035;-87
2023/07/30 06:43:25;;;;;;;1.45;0.98;;;;;;;;;;5071876;28;20024;-84
2023/07/30 06:45:50;;;;;;;1.20;0.80;;;;;;;;;;5068258;28;20025;-83
2023/07/30 06:48:16;;;;;;;1.67;1.05;;;;;;;;;;5068547;28;20064;-81
2023/07/30 06:50:42;;;;;;;0.63;0.60;;;;;;;;;;5069965;28;20025;-82
2023/07/30 06:53:07;;;;;;;1.40;1.13;;;;;;;;;;5070377;28;20024;-81
2023/07/30 06:55:33;;;;;;;0.88;0.85;;;;;;;;;;5071371;28;20112;-83
2023/07/30 06:57:59;;;;;;;2.08;0.93;;;;;;;;;;5067819;28;20029;-82
2023/07/30 07:00:24;;;;;;;1.65;1.20;;;;;;;;;;5070334;28;20099;-83
2023/07/30 07:02:50;;;;;;;1.77;1.50;;;;;;;;;;5064404;28;20551;-83
2023/07/30 07:05:16;;;;;;;1.38;0.70;;;;;;;;;;5067488;28;20080;-83
2023/07/30 07:07:42;;;;;;;1.05;0.80;;;;;;;;;;5067382;28;20048;-83
2023/07/30 07:10:07;;;;;;;1.45;1.02;;;;;;;;;;5069699;28;20044;-84
2023/07/30 07:12:33;;;;;;;1.90;1.45;;;;;;;;;;5071084;28;20028;-83
2023/07/30 07:15:01;;;;;;;0.68;0.68;;;;;;;;;;5071303;28;20024;-83
2023/07/30 07:17:26;;;;;;;0.50;0.50;;;;;;;;;;5067522;28;20056;-83
2023/07/30 07:19:52;;;;;;;0.90;0.70;;;;;;;;;;5070232;28;20040;-82
2023/07/30 07:22:18;;;;;;;1.02;0.90;;;;;;;;;;5069141;28;20024;-84
2023/07/30 07:24:44;;;;;;;2.08;1.42;;;;;;;;;;5068973;28;20028;-85
2023/07/30 07:27:10;;;;;;;2.30;1.45;;;;;;;;;;5067394;28;20519;-85
2023/07/30 07:29:35;;;;;;;0.68;0.57;;;;;;;;;;5070879;28;20020;-83
2023/07/30 07:32:00;;;;;;;1.23;0.98;;;;;;;;;;5069672;28;20090;-84
2023/07/30 07:34:26;;;;;;;0.60;0.60;;;;;;;;;;5068466;28;20471;-84
2023/07/30 07:36:51;;;;;;;1.33;1.10;;;;;;;;;;5071691;28;20025;-84
2023/07/30 07:39:18;;;;;;;0.93;0.85;;;;;;;;;;5067954;28;20028;-83
2023/07/30 07:41:43;;;;;;;0.70;0.60;;;;;;;;;;5065424;28;20094;-82
2023/07/30 07:44:09;;;;;;;0.50;0.50;;;;;;;;;;5067130;28;20041;-81
2023/07/30 07:46:34;;;;;;;0.88;0.70;;;;;;;;;;5070235;28;20465;-83
2023/07/30 07:49:00;;;;;;;0.80;0.70;;;;;;;;;;5067083;28;20136;-81
2023/07/30 07:51:25;;;;;;;0.30;0.30;;;;;;;;;;5069573;28;20074;-82
2023/07/30 07:53:51;;;;;;;1.73;0.60;;;;;;;;;;5066813;28;20060;-81
2023/07/30 07:56:16;;;;;;;2.25;1.08;;;;;;;;;;5069988;28;20028;-85
2023/07/30 07:58:43;;;;;;;0.85;0.60;;;;;;;;;;5072979;28;20103;-83
2023/07/30 08:01:08;;;;;;;1.25;0.95;;;;;;;;;;5078643;28;20040;-83
2023/07/30 08:03:34;;;;;;;0.77;0.73;;;;;;;;;;5069205;28;20028;-82
2023/07/30 08:05:59;;;;;;;0.43;0.43;;;;;;;;;;5069792;28;20724;-81
2023/07/30 08:08:26;;;;;;;0.68;0.52;;;;;;;;;;5068064;28;20511;-83
2023/07/30 08:10:52;;;;;;;0.93;0.68;;;;;;;;;;5068727;28;20021;-82
2023/07/30 08:13:17;;;;;;;1.27;0.90;;;;;;;;;;5068063;28;20107;-80
2023/07/30 08:15:43;;;;;;;0.98;0.77;;;;;;;;;;5065184;28;20028;-83
2023/07/30 08:18:09;;;;;;;0.90;0.80;;;;;;;;;;5076060;28;20499;-82
2023/07/30 08:20:34;;;;;;;0.60;0.60;;;;;;;;;;5068264;28;20077;-83
2023/07/30 08:23:00;;;;;;;0.60;0.60;;;;;;;;;;5067589;28;20024;-82
2023/07/30 08:25:25;;;;;;;0.93;0.70;;;;;;;;;;5065167;28;20028;-82
2023/07/30 08:27:50;;;;;;;1.38;1.08;;;;;;;;;;5072336;28;20040;-82
2023/07/30 08:30:16;;;;;;;0.75;0.57;;;;;;;;;;5073990;28;20024;-82
2023/07/30 08:32:43;;;;;;;2.00;1.05;;;;;;;;;;5074288;28;20027;-83
2023/07/30 08:35:09;;;;;;;0.68;0.57;;;;;;;;;;5072819;28;20028;-84
2023/07/30 08:37:35;;;;;;;0.77;0.77;;;;;;;;;;5073923;28;20028;-85
2023/07/30 08:40:00;;;;;;;1.48;1.02;;;;;;;;;;5072894;28;20534;-84
2023/07/30 08:42:26;;;;;;;1.13;0.82;;;;;;;;;;5072658;28;20056;-82
2023/07/30 08:44:51;;;;;;;1.02;0.85;;;;;;;;;;5071695;28;20074;-82
2023/07/30 08:47:17;;;;;;;1.15;0.63;;;;;;;;;;5073527;28;20471;-86
2023/07/30 08:49:42;;;;;;;1.55;0.80;;;;;;;;;;5072806;28;20024;-85
2023/07/30 08:52:09;;;;;;;0.95;0.60;;;;;;;;;;5073073;28;20024;-85
2023/07/30 08:54:37;;;;;;;1.10;0.63;;;;;;;;;;5070948;28;20040;-85
2023/07/30 08:57:03;;;;;;;1.33;0.57;;;;;;;;;;5073400;28;20099;-86
2023/07/30 08:59:39;;;;;;;0.70;0.70;;;;;;;;;;5071394;28;20100;-84
2023/07/30 09:02:12;;;;;;;0.73;0.50;;;;;;;;;;5068841;28;20532;-83
2023/07/30 09:04:41;;;;;;;0.80;0.63;;;;;;;;;;5069657;28;20025;-83
2023/07/30 09:07:09;;;;;;;0.88;0.70;;;;;;;;;;5072438;28;20476;-86
2023/07/30 09:09:35;;;;;;;0.70;0.68;;;;;;;;;;5070077;28;20046;-83
2023/07/30 09:12:01;;;;;;;4.38;1.25;;;;;;;;;;5073647;28;20131;-85
2023/07/30 09:14:27;;;;;;;1.80;1.00;;;;;;;;;;5071555;28;20035;-81
2023/07/30 09:16:57;;;;;;;1.80;0.80;;;;;;;;;;5064726;28;20131;-82
2023/07/30 09:19:23;;;;;;;1.90;0.98;;;;;;;;;;5073730;28;20033;-83
2023/07/30 09:21:49;;;;;;;0.80;0.73;;;;;;;;;;5068940;28;20035;-85
2023/07/30 09:24:21;;;;;;;0.68;0.65;;;;;;;;;;5069609;28;20031;-84
2023/07/30 09:26:47;;;;;;;0.30;0.30;;;;;;;;;;5068118;28;20074;-85
2023/07/30 09:29:13;;;;;;;0.30;0.30;;;;;;;;;;5067881;28;20448;-82
2023/07/30 09:31:56;;;;;;;1.15;0.77;;;;;;;;;;5067296;28;20645;-82
2023/07/30 09:34:23;;;;;;;1.00;0.77;;;;;;;;;;5065603;28;20099;-82
2023/07/30 09:36:53;;;;;;;0.77;0.45;;;;;;;;;;5069117;28;20383;-83
2023/07/30 09:39:24;;;;;;;0.55;0.55;;;;;;;;;;5062556;28;20036;-83
2023/07/30 09:41:51;;;;;;;1.40;1.05;;;;;;;;;;5065640;28;20130;-82
2023/07/30 09:44:20;;;;;;;1.02;0.60;;;;;;;;;;5066806;28;21598;-82
2023/07/30 09:46:48;;;;;;;2.15;1.30;;;;;;;;;;5068266;28;20090;-83
2023/07/30 09:49:14;;;;;;;1.15;0.82;;;;;;;;;;5065267;28;20537;-84
2023/07/30 09:51:40;;;;;;;1.45;0.90;;;;;;;;;;5065338;28;20071;-82
2023/07/30 09:54:11;;;;;;;1.02;0.70;;;;;;;;;;5064518;28;20039;-81
2023/07/30 09:56:39;;;;;;;1.08;0.73;;;;;;;;;;5067801;28;20028;-82
2023/07/30 09:59:05;;;;;;;0.80;0.50;;;;;;;;;;5066694;28;20082;-82
2023/07/30 10:01:32;;;;;;;0.60;0.60;;;;;;;;;;5067268;28;20559;-82
2023/07/30 10:03:58;;;;;;;1.13;1.02;;;;;;;;;;5067950;28;20028;-81
2023/07/30 10:06:30;;;;;;;2.25;1.35;;;;;;;;;;5064721;28;20031;-82
2023/07/30 10:08:59;;;;;;;0.55;0.55;;;;;;;;;;5066472;28;20032;-84
2023/07/30 10:11:26;;;;;;;1.27;0.87;;;;;;;;;;5068072;28;20059;-80
2023/07/30 10:13:52;;;;;;;1.30;0.93;;;;;;;;;;5066876;28;20090;-79
2023/07/30 10:16:18;;;;;;;1.40;0.95;;;;;;;;;;5063370;28;20139;-80
2023/07/30 10:18:44;;;;;;;2.53;1.27;;;;;;;;;;5067160;28;20123;-79
2023/07/30 10:21:11;;;;;;;1.10;1.00;;;;;;;;;;5068474;28;20050;-80
2023/07/30 10:23:46;;;;;;;1.27;1.13;;;;;;;;;;5073540;28;20033;-78
2023/07/30 10:26:12;;;;;;;1.25;0.98;;;;;;;;;;5068842;28;20035;-80
2023/07/30 10:28:43;;;;;;;1.30;1.15;;;;;;;;;;5064104;28;20112;-80
2023/07/30 10:31:09;;;;;;;2.47;1.48;;;;;;;;;;5064914;28;20032;-80
2023/07/30 10:33:50;;;;;;;1.40;1.00;;;;;;;;;;5067539;28;20067;-78
2023/07/30 10:36:31;;;;;;;1.40;1.20;;;;;;;;;;5061132;28;20501;-78
2023/07/30 10:38:56;;;;;;;1.55;0.93;;;;;;;;;;5065048;28;20571;-79
2023/07/30 10:41:22;;;;;;;1.02;0.88;;;;;;;;;;5067481;28;20020;-80
2023/07/30 10:43:50;;;;;;;1.25;0.70;;;;;;;;;;5065727;28;20028;-81
2023/07/30 10:46:17;;;;;;;1.13;1.00;;;;;;;;;;5063589;28;20372;-78
2023/07/30 10:48:46;;;;;;;2.05;1.05;;;;;;;;;;5065448;28;20032;-79
2023/07/30 10:51:13;;;;;;;1.30;0.73;;;;;;;;;;5066502;28;20028;-80
2023/07/30 10:53:42;;;;;;;0.80;0.80;;;;;;;;;;5067704;28;20423;-80
2023/07/30 10:56:09;;;;;;;1.27;1.15;;;;;;;;;;5064903;28;20047;-80
2023/07/30 10:58:36;;;;;;;1.25;1.00;;;;;;;;;;5069440;28;20033;-80
2023/07/30 11:01:06;;;;;;;1.65;0.90;;;;;;;;;;5066371;28;20036;-80
2023/07/30 11:03:33;;;;;;;1.63;0.93;;;;;;;;;;5079779;28;20082;-78
2023/07/30 11:05:59;;;;;;;1.30;1.20;;;;;;;;;;5067248;28;20036;-79
2023/07/30 11:08:41;;;;;;;1.35;1.02;;;;;;;;;;5067275;28;20028;-80
2023/07/30 11:11:10;;;;;;;1.02;0.90;;;;;;;;;;5068592;28;20389;-79
2023/07/30 11:13:37;;;;;;;1.77;1.02;;;;;;;;;;5067399;28;20093;-80
2023/07/30 11:16:06;;;;;;;1.48;0.93;;;;;;;;;;5065502;28;20053;-81
2023/07/30 11:18:35;;;;;;;1.42;1.20;;;;;;;;;;5066974;28;20036;-80
2023/07/30 11:21:11;;;;;;;0.95;0.88;;;;;;;;;;5071203;28;20044;-80
2023/07/30 11:23:39;;;;;;;1.38;0.80;;;;;;;;;;5074113;28;20051;-78
2023/07/30 11:26:06;;;;;;;1.05;0.82;;;;;;;;;;5073477;28;20035;-81
2023/07/30 11:28:36;;;;;;;1.42;1.15;;;;;;;;;;5071643;28;20096;-79
2023/07/30 11:31:05;;;;;;;1.83;1.30;;;;;;;;;;5067833;28;20028;-81
2023/07/30 11:33:31;;;;;;;2.67;1.30;;;;;;;;;;5069809;28;20097;-82
2023/07/30 11:35:57;;;;;;;1.08;0.95;;;;;;;;;;5070344;28;20060;-79
2023/07/30 11:38:24;;;;;;;0.77;0.77;;;;;;;;;;5069893;28;20032;-81
2023/07/30 11:40:51;;;;;;;1.40;1.15;;;;;;;;;;5074083;28;20772;-82
2023/07/30 11:43:17;;;;;;;1.58;1.10;;;;;;;;;;5067837;28;20025;-83
2023/07/30 11:45:42;;;;;;;2.35;1.55;;;;;;;;;;5066456;28;20074;-81
2023/07/30 11:48:11;;;;;;;1.30;0.77;;;;;;;;;;5067744;28;20024;-80
2023/07/30 11:50:47;;;;;;;1.50;1.30;;;;;;;;;;5062524;28;20109;-81
2023/07/30 11:53:13;;;;;;;1.23;0.88;;;;;;;;;;5061183;28;20043;-77
2023/07/30 11:55:39;;;;;;;1.52;1.10;;;;;;;;;;5067237;28;20029;-80
2023/07/30 11:58:09;;;;;;;1.70;1.15;;;;;;;;;;5061704;28;20044;-82
2023/07/30 12:00:37;;;;;;;1.40;1.13;;;;;;;;;;5059188;28;20115;-81
2023/07/30 12:03:04;;;;;;;1.10;1.00;;;;;;;;;;5066213;28;20032;-82
2023/07/30 12:05:37;;;;;;;1.30;1.20;;;;;;;;;;5066916;28;20155;-80
2023/07/30 12:08:03;;;;;;;0.88;0.88;;;;;;;;;;5067960;28;20028;-84
2023/07/30 12:10:46;;;;;;;1.25;1.15;;;;;;;;;;5068327;28;20028;-86
2023/07/30 12:13:13;;;;;;;1.08;0.88;;;;;;;;;;5066765;28;20377;-89
2023/07/30 12:15:38;;;;;;;1.17;1.08;;;;;;;;;;5066591;28;20032;-86
2023/07/30 12:18:04;;;;;;;1.90;1.17;;;;;;;;;;5068811;28;20094;-89
2023/07/30 12:20:29;;;;;;;1.05;0.90;;;;;;;;;;5067542;28;20024;-90
2023/07/30 12:22:55;;;;;;;1.27;1.02;;;;;;;;;;5069655;28;20028;-85
2023/07/30 12:25:20;;;;;;;2.58;1.73;;;;;;;;;;5066190;28;20032;-88
2023/07/30 12:27:46;;;;;;;1.38;1.00;;;;;;;;;;5065293;28;20036;-85
2023/07/30 12:30:11;;;;;;;1.35;0.95;;;;;;;;;;5067012;28;20020;-86
2023/07/30 12:32:36;;;;;;;2.55;1.38;;;;;;;;;;5065403;28;20024;-87
2023/07/30 12:35:02;;;;;;;2.33;1.48;;;;;;;;;;5066720;28;20028;-84
2023/07/30 12:37:27;;;;;;;5.88;1.27;;;;;;;;;;5066914;28;20109;-89
2023/07/30 12:39:53;;;;;;;2.13;1.30;;;;;;;;;;5067348;28;20036;-88
2023/07/30 12:42:18;;;;;;;2.17;1.35;;;;;;;;;;5063778;28;20052;-87
2023/07/30 12:44:44;;;;;;;1.75;1.10;;;;;;;;;;5068289;28;20095;-88
2023/07/30 12:47:09;;;;;;;1.02;0.95;;;;;;;;;;5064373;28;20353;-88
2023/07/30 12:49:34;;;;;;;2.50;1.48;;;;;;;;;;5066085;28;20424;-86
2023/07/30 12:52:00;;;;;;;2.20;1.35;;;;;;;;;;5065414;28;20051;-88
2023/07/30 12:54:25;;;;;;;1.00;0.90;;;;;;;;;;5068755;28;20064;-87
2023/07/30 12:56:51;;;;;;;1.40;1.05;;;;;;;;;;5065789;28;20063;-86
2023/07/30 12:59:16;;;;;;;1.85;1.02;;;;;;;;;;5067743;28;20052;-89
2023/07/30 13:01:42;;;;;;;2.47;1.30;;;;;;;;;;5067490;28;20062;-85
2023/07/30 13:04:07;;;;;;;2.03;1.17;;;;;;;;;;5067325;28;20052;-87
2023/07/30 13:06:32;;;;;;;1.23;1.05;;;;;;;;;;5063394;28;20028;-86
2023/07/30 13:08:58;;;;;;;1.67;1.08;;;;;;;;;;5066920;28;20032;-83
2023/07/30 13:11:23;;;;;;;1.70;1.10;;;;;;;;;;5065517;28;20555;-89
2023/07/30 13:13:49;;;;;;;2.22;1.52;;;;;;;;;;5063770;28;20489;-88
2023/07/30 13:16:14;;;;;;;0.85;0.75;;;;;;;;;;5066550;28;20085;-85
2023/07/30 13:18:40;;;;;;;2.17;1.50;;;;;;;;;;5067795;28;20044;-87
2023/07/30 13:21:05;;;;;;;1.30;1.00;;;;;;;;;;5066104;28;20033;-84
2023/07/30 13:23:32;;;;;;;2.30;1.20;;;;;;;;;;5067409;28;20510;-82
2023/07/30 13:25:57;;;;;;;1.75;1.13;;;;;;;;;;5063412;28;20016;-82
2023/07/30 13:28:23;;;;;;;1.88;1.65;;;;;;;;;;5064206;28;20039;-84
2023/07/30 13:30:50;;;;;;;2.88;1.40;;;;;;;;;;5067305;28;20109;-83
2023/07/30 13:33:16;;;;;;;0.95;0.93;;;;;;;;;;5066045;28;20135;-84
2023/07/30 13:35:41;;;;;;;1.58;1.02;;;;;;;;;;5065860;28;20508;-84
2023/07/30 13:38:07;;;;;;;1.88;1.40;;;;;;;;;;5063663;28;20036;-83
2023/07/30 13:40:32;;;;;;;3.25;1.55;;;;;;;;;;5066696;28;20066;-83
2023/07/30 13:42:57;;;;;;;1.45;1.30;;;;;;;;;;5064680;28;20055;-83
2023/07/30 13:45:23;;;;;;;2.08;1.20;;;;;;;;;;5063679;28;20119;-84
2023/07/30 13:47:48;;;;;;;1.35;1.02;;;;;;;;;;5065776;28;20024;-86
2023/07/30 13:50:14;;;;;;;2.85;1.77;;;;;;;;;;5063665;28;20385;-83
2023/07/30 13:52:39;;;;;;;2.42;1.20;;;;;;;;;;5070902;28;20472;-84
2023/07/30 13:55:05;;;;;;;3.70;1.55;;;;;;;;;;5065133;28;20031;-83
2023/07/30 13:57:30;;;;;;;3.40;1.77;;;;;;;;;;5063892;28;20085;-84
2023/07/30 13:59:56;;;;;;;1.60;1.33;;;;;;;;;;5064977;28;20389;-83
2023/07/30 14:02:21;;;;;;;2.53;1.50;;;;;;;;;;5064086;28;20055;-85
2023/07/30 14:04:47;;;;;;;1.58;1.30;;;;;;;;;;5065168;28;20094;-86
2023/07/30 14:07:12;;;;;;;1.88;1.20;;;;;;;;;;5066062;28;20468;-84
2023/07/30 14:09:38;;;;;;;1.63;1.27;;;;;;;;;;5064724;28;20457;-85
2023/07/30 14:12:04;;;;;;;3.50;2.15;;;;;;;;;;5064445;28;20074;-84
2023/07/30 14:14:29;;;;;;;2.83;1.40;;;;;;;;;;5063122;28;20469;-83
2023/07/30 14:16:55;;;;;;;2.85;1.45;;;;;;;;;;5061882;28;20059;-83
2023/07/30 14:19:20;;;;;;;4.47;1.92;;;;;;;;;;5065775;28;20027;-83
2023/07/30 14:21:46;;;;;;;1.98;1.42;;;;;;;;;;5065027;28;20025;-82
2023/07/30 14:24:11;;;;;;;1.75;1.02;;;;;;;;;;5064652;28;20192;-84
2023/07/30 14:26:37;;;;;;;1.40;1.17;;;;;;;;;;5062632;28;20415;-85
2023/07/30 14:29:02;;;;;;;3.45;1.65;;;;;;;;;;5064730;28;20021;-87
2023/07/30 14:31:28;;;;;;;2.42;1.75;;;;;;;;;;5063310;28;20024;-82
2023/07/30 14:33:53;;;;;;;1.85;1.50;;;;;;;;;;5065094;28;20020;-81
2023/07/30 14:36:19;;;;;;;2.28;1.50;;;;;;;;;;5065355;28;20073;-80
2023/07/30 14:38:44;;;;;;;2.42;1.70;;;;;;;;;;5065386;28;20030;-82